Leyba, New Mexico
Current Conditions -  °F | °C
As of 5:53 PM on Sunday 23 Nov 2014 (Local Time) from KCQC Reporting Station
Scattered Clouds Scattered Clouds  
Wind Chill: -7°   Ceiling: Unl
Heat Index: -1°   Visibility: 10mi
Dew Point: -12°   Wind: 14mph
Humidity: 45%   Direction: 300°WNW
Pressure: 29.89"   Gusts: NA
Location:  35.2352°N, 105.52°W
Report Text: KCQC 240053Z AUTO 30012KT 10SM SCT060 M01/M12 A2989 RMK AO2 PK WND 31029/2355 SLP129 T10111117
Loading
Personal Weather Stations






























Interactive Weather Map New forecast layout! Learn more

10-Day Weather Forecast

Advertisements
Track Severe Weather on mobile